Flight Information

DEPARTURE
PORTLAND, OR
Elevation:
30
Runways:
3/21 - 6000x150 - ASPH-E
10L/28R - 9825x150 - ASPH-E
10R/28L - 11000x150 - CONC-G
ATIS:
128.35 503-493-7557
Clearance Delivery:
120.125
Ground:
121.9
Tower:
PORTLAND TOWER
123.775 RWY 03-21, 10R-28L
118.7 RWY 10L-28R
DESTINATION
,
Elevation:
TPA:
1000 (est.)


6728.6 NM65° True-19° Var46° HDG

Flight Plan:
(click to file on line)

1. Type
2. Aircraft Identification
3. Aircraft Type / Special Equipment
4. True Airspeed
kts
5. Departure Airport
(ICAO code)
6. Arriving Airport
(ICAO code)
7. Cruising Altitude
ft
8. Alternate Airport
(ICAO code)
9. Route of Flight
10. Remarks


00:00:00 Departure ATIS: Destination ATIS:

Clearance Limit:
Route:
Altitude: Expect in minutes
Frequency:
Transponder: (7500 Hijack / 7600 Lost Comms / 7700 Emergency)


KPDX 010653Z 20004KT 10SM BKN049 OVC070 07/02 A3010 RMK AO2 RAB45E50 SLP191 P0000 T00670017
Time: 2020-04-01T06:53:00Z
1585725582
Winds: 200 @ 4 kts
Visibility: 10.0 sm
Clouds (AGL): BKN 4900
OVC 7000
Temperature: 6.7 C
Dew Point: 1.7 C
Pressure: 30.100393 in Hgbr


Notes:

Data extracted from FAA Digital Chart Supplement. Effective: 0901Z Thursday, Mar 26, 2020 to 0901Z Thursday, May 21, 2020
Current ATIS data is provided courtisy of PilotEdge.